Anton Chico, New Mexico
Current Conditions -  °F | °C
As of 1:53 PM on Tuesday 21 Oct 2014 (Local Time) from KLVS Reporting Station
Scattered Clouds Scattered Clouds  
Wind Chill: 16°   Ceiling: Unl
Heat Index: 16°   Visibility: 10mi
Dew Point:   Wind: 14mph
Humidity: 55%   Direction: 200°SSW
Pressure: 30.17"   Gusts: NA
Location:  35.2°N, 105.14°W
Report Text: KLVS 211953Z AUTO 20012KT 10SM SCT110 16/07 A3017 RMK AO2 SLP143 T01560067
Loading
Personal Weather Stations






























Interactive Weather Map
Tropical Storm Tracking
New forecast layout! Learn more

10-Day Weather Forecast

Advertisements
Track Severe Weather on mobile